Coffman, Missouri
Current Conditions -  °F | °C
As of 8:15 PM on Friday 28 Nov 2014 (Local Time) from KSAR Reporting Station
Clear Clear  
Wind Chill: 36°   Ceiling: Unl
Heat Index: 43°   Visibility: 10mi
Dew Point: 32°   Wind: 14mph
Humidity: 65%   Direction: 170°S
Pressure: 29.97"   Gusts: 22mph
Location:  37.9762°N, 90.0499°W
Report Text: KSAR 290215Z AUTO 17012G19KT 10SM CLR 06/00 A2997 RMK AO2 T00610000
Loading
Personal Weather Stations






























Interactive Weather Map New forecast layout! Learn more

10-Day Weather Forecast

Advertisements
Track Severe Weather on mobile